Alvord, Iowa
Current Conditions -  °F | °C
As of 1:14 PM on Sunday 21 Dec 2014 (Local Time) from KLYV Reporting Station
Moderate Fog Moderate Fog  
Wind Chill: -3°   Ceiling: 200
Heat Index:   Visibility: 0.5mi
Dew Point:   Wind: 13mph
Humidity: 93%   Direction: 180°S
Pressure: 29.66"   Gusts: NA
Location:  43.34°N, 96.3°W
Report Text: KLYV 211914Z AUTO 18011KT 1/2SM FG OVC002 02/01 A2966 RMK AO2
Loading
Personal Weather Stations






























Interactive Weather Map New forecast layout! Learn more

10-Day Weather Forecast

Advertisements
Track Severe Weather on mobile